Location Sebastian, FL, US

ob KFLSEBAS1 181020Z AUTO 27000KT CLR 26/24 A3002 RMK SLPNO 

2017.08.18 1020 UTC
Wind from the W (269 degrees) at Calm MPH ( KT) gusting to 0.0 MPH (0 KT)
Visibility    Mile(s)
Sky Conditions  clear
Temperature 78.00 F (26 C)
Dew Point 74.50 F (24 C)
Relative Humidity 89%
Pressure   30.02 in. Hg (1017 hPa)
Rain  0.00 in.
Daily Rain  in.

Station Name  www.kflsebas1.com
Longitude, Latitude  -80.48, 27.8
Elevation 23
Station URL www.kflsebas1.com
Software Type VWS V15.00